sensor_id;sensor_type;location;lat;lon;timestamp;temperature;humidity
7654;DHT22;3869;48.406;10.774;2024-03-07T00:02:11;5.30;99.90
7654;DHT22;3869;48.406;10.774;2024-03-07T00:04:39;5.30;99.90
7654;DHT22;3869;48.406;10.774;2024-03-07T00:07:07;5.30;99.90
7654;DHT22;3869;48.406;10.774;2024-03-07T00:09:35;5.20;99.90
7654;DHT22;3869;48.406;10.774;2024-03-07T00:12:04;5.20;99.90
7654;DHT22;3869;48.406;10.774;2024-03-07T00:14:34;5.20;99.90
7654;DHT22;3869;48.406;10.774;2024-03-07T00:17:02;5.20;99.90
7654;DHT22;3869;48.406;10.774;2024-03-07T00:19:32;5.20;99.90
7654;DHT22;3869;48.406;10.774;2024-03-07T00:22:00;5.20;99.90
7654;DHT22;3869;48.406;10.774;2024-03-07T00:24:27;5.20;99.90
7654;DHT22;3869;48.406;10.774;2024-03-07T00:26:55;5.20;99.90
7654;DHT22;3869;48.406;10.774;2024-03-07T00:29:24;5.20;99.90
7654;DHT22;3869;48.406;10.774;2024-03-07T00:31:52;5.20;99.90
7654;DHT22;3869;48.406;10.774;2024-03-07T00:34:20;5.20;99.90
7654;DHT22;3869;48.406;10.774;2024-03-07T00:36:53;5.30;99.90
7654;DHT22;3869;48.406;10.774;2024-03-07T00:39:23;5.30;99.90
7654;DHT22;3869;48.406;10.774;2024-03-07T00:41:51;5.30;99.90
7654;DHT22;3869;48.406;10.774;2024-03-07T00:44:19;5.30;99.90
7654;DHT22;3869;48.406;10.774;2024-03-07T00:46:47;5.30;99.90
7654;DHT22;3869;48.406;10.774;2024-03-07T00:49:15;5.40;99.90
7654;DHT22;3869;48.406;10.774;2024-03-07T00:51:43;5.40;99.90
7654;DHT22;3869;48.406;10.774;2024-03-07T00:54:13;5.40;99.90
7654;DHT22;3869;48.406;10.774;2024-03-07T00:56:40;5.40;99.90
7654;DHT22;3869;48.406;10.774;2024-03-07T00:59:08;5.40;99.90
7654;DHT22;3869;48.406;10.774;2024-03-07T01:01:36;5.40;99.90
7654;DHT22;3869;48.406;10.774;2024-03-07T01:04:05;5.40;99.90
7654;DHT22;3869;48.406;10.774;2024-03-07T01:06:33;5.30;99.90
7654;DHT22;3869;48.406;10.774;2024-03-07T01:09:01;5.30;99.90
7654;DHT22;3869;48.406;10.774;2024-03-07T01:11:30;5.40;99.90
7654;DHT22;3869;48.406;10.774;2024-03-07T01:13:58;5.40;99.90
7654;DHT22;3869;48.406;10.774;2024-03-07T01:16:26;5.40;99.90
7654;DHT22;3869;48.406;10.774;2024-03-07T01:18:54;5.40;99.90
7654;DHT22;3869;48.406;10.774;2024-03-07T01:21:22;5.30;99.90
7654;DHT22;3869;48.406;10.774;2024-03-07T01:23:50;5.30;99.90
7654;DHT22;3869;48.406;10.774;2024-03-07T01:26:19;5.20;99.90
7654;DHT22;3869;48.406;10.774;2024-03-07T01:28:48;5.10;99.90
7654;DHT22;3869;48.406;10.774;2024-03-07T01:31:16;5.10;99.90
7654;DHT22;3869;48.406;10.774;2024-03-07T01:33:45;5.10;99.90
7654;DHT22;3869;48.406;10.774;2024-03-07T01:36:13;5.00;99.90
7654;DHT22;3869;48.406;10.774;2024-03-07T01:38:41;4.90;99.90
7654;DHT22;3869;48.406;10.774;2024-03-07T01:41:09;4.80;99.90
7654;DHT22;3869;48.406;10.774;2024-03-07T01:43:37;4.80;99.90
7654;DHT22;3869;48.406;10.774;2024-03-07T01:46:06;4.80;99.90
7654;DHT22;3869;48.406;10.774;2024-03-07T01:48:34;4.80;99.90
7654;DHT22;3869;48.406;10.774;2024-03-07T01:51:03;4.70;99.90
7654;DHT22;3869;48.406;10.774;2024-03-07T01:53:33;4.60;99.90
7654;DHT22;3869;48.406;10.774;2024-03-07T01:56:02;4.60;99.90
7654;DHT22;3869;48.406;10.774;2024-03-07T01:58:30;4.40;99.90
7654;DHT22;3869;48.406;10.774;2024-03-07T02:00:59;4.40;99.90
7654;DHT22;3869;48.406;10.774;2024-03-07T02:03:29;4.40;99.90
7654;DHT22;3869;48.406;10.774;2024-03-07T02:05:57;4.40;99.90
7654;DHT22;3869;48.406;10.774;2024-03-07T02:08:25;4.40;99.90
7654;DHT22;3869;48.406;10.774;2024-03-07T02:10:53;4.40;99.90
7654;DHT22;3869;48.406;10.774;2024-03-07T02:13:21;4.40;99.90
7654;DHT22;3869;48.406;10.774;2024-03-07T02:15:49;4.30;99.90
7654;DHT22;3869;48.406;10.774;2024-03-07T02:18:17;4.20;99.90
7654;DHT22;3869;48.406;10.774;2024-03-07T02:20:47;4.10;99.90
7654;DHT22;3869;48.406;10.774;2024-03-07T02:23:15;4.10;99.90
7654;DHT22;3869;48.406;10.774;2024-03-07T02:25:43;4.00;99.90
7654;DHT22;3869;48.406;10.774;2024-03-07T02:28:11;4.00;99.90
7654;DHT22;3869;48.406;10.774;2024-03-07T02:30:39;4.00;99.90
7654;DHT22;3869;48.406;10.774;2024-03-07T02:33:07;4.00;99.90
7654;DHT22;3869;48.406;10.774;2024-03-07T02:35:37;4.00;99.90
7654;DHT22;3869;48.406;10.774;2024-03-07T02:38:06;3.90;99.90
7654;DHT22;3869;48.406;10.774;2024-03-07T02:40:35;3.90;99.90
7654;DHT22;3869;48.406;10.774;2024-03-07T02:43:03;3.80;99.90
7654;DHT22;3869;48.406;10.774;2024-03-07T02:45:33;3.80;99.90
7654;DHT22;3869;48.406;10.774;2024-03-07T02:48:02;3.80;99.90
7654;DHT22;3869;48.406;10.774;2024-03-07T02:50:31;3.80;99.90
7654;DHT22;3869;48.406;10.774;2024-03-07T02:52:59;3.80;99.90
7654;DHT22;3869;48.406;10.774;2024-03-07T02:55:28;3.80;99.90
7654;DHT22;3869;48.406;10.774;2024-03-07T02:57:56;3.80;99.90
7654;DHT22;3869;48.406;10.774;2024-03-07T03:00:25;3.80;99.90
7654;DHT22;3869;48.406;10.774;2024-03-07T03:02:56;3.80;99.90
7654;DHT22;3869;48.406;10.774;2024-03-07T03:05:24;3.70;99.90
7654;DHT22;3869;48.406;10.774;2024-03-07T03:07:52;3.80;99.90
7654;DHT22;3869;48.406;10.774;2024-03-07T03:10:22;3.80;99.90
7654;DHT22;3869;48.406;10.774;2024-03-07T03:12:55;3.80;99.90
7654;DHT22;3869;48.406;10.774;2024-03-07T03:15:25;3.80;99.90
7654;DHT22;3869;48.406;10.774;2024-03-07T03:17:53;3.80;99.90
7654;DHT22;3869;48.406;10.774;2024-03-07T03:20:21;3.90;99.90
7654;DHT22;3869;48.406;10.774;2024-03-07T03:22:53;3.90;99.90
7654;DHT22;3869;48.406;10.774;2024-03-07T03:25:41;3.90;99.90
7654;DHT22;3869;48.406;10.774;2024-03-07T03:28:11;3.90;99.90
7654;DHT22;3869;48.406;10.774;2024-03-07T03:30:40;4.00;99.90
7654;DHT22;3869;48.406;10.774;2024-03-07T03:33:09;4.00;99.90
7654;DHT22;3869;48.406;10.774;2024-03-07T03:35:38;4.00;99.90
7654;DHT22;3869;48.406;10.774;2024-03-07T03:38:07;4.00;99.90
7654;DHT22;3869;48.406;10.774;2024-03-07T03:40:35;4.00;99.90
7654;DHT22;3869;48.406;10.774;2024-03-07T03:43:04;3.90;99.90
7654;DHT22;3869;48.406;10.774;2024-03-07T03:45:33;3.90;99.90
7654;DHT22;3869;48.406;10.774;2024-03-07T03:48:02;3.90;99.90
7654;DHT22;3869;48.406;10.774;2024-03-07T03:50:30;3.90;99.90
7654;DHT22;3869;48.406;10.774;2024-03-07T03:52:58;4.00;99.90
7654;DHT22;3869;48.406;10.774;2024-03-07T03:55:28;4.00;99.90
7654;DHT22;3869;48.406;10.774;2024-03-07T03:57:56;4.00;99.90
7654;DHT22;3869;48.406;10.774;2024-03-07T04:00:24;4.00;99.90
7654;DHT22;3869;48.406;10.774;2024-03-07T04:02:53;4.00;99.90
7654;DHT22;3869;48.406;10.774;2024-03-07T04:05:21;3.90;99.90
7654;DHT22;3869;48.406;10.774;2024-03-07T04:07:50;3.80;99.90
7654;DHT22;3869;48.406;10.774;2024-03-07T04:10:18;3.90;99.90
7654;DHT22;3869;48.406;10.774;2024-03-07T04:12:46;3.80;99.90
7654;DHT22;3869;48.406;10.774;2024-03-07T04:15:15;3.70;99.90
7654;DHT22;3869;48.406;10.774;2024-03-07T04:17:46;3.80;99.90
7654;DHT22;3869;48.406;10.774;2024-03-07T04:20:17;3.80;99.90
7654;DHT22;3869;48.406;10.774;2024-03-07T04:22:47;3.60;99.90
7654;DHT22;3869;48.406;10.774;2024-03-07T04:25:16;3.40;99.90
7654;DHT22;3869;48.406;10.774;2024-03-07T04:27:45;3.40;99.90
7654;DHT22;3869;48.406;10.774;2024-03-07T04:30:13;3.40;99.90
7654;DHT22;3869;48.406;10.774;2024-03-07T04:32:43;3.40;99.90
7654;DHT22;3869;48.406;10.774;2024-03-07T04:35:12;3.40;99.90
7654;DHT22;3869;48.406;10.774;2024-03-07T04:37:45;3.40;99.90
7654;DHT22;3869;48.406;10.774;2024-03-07T04:40:14;3.40;99.90
7654;DHT22;3869;48.406;10.774;2024-03-07T04:42:47;3.40;99.90
7654;DHT22;3869;48.406;10.774;2024-03-07T04:45:17;3.40;99.90
7654;DHT22;3869;48.406;10.774;2024-03-07T04:47:46;3.40;99.90
7654;DHT22;3869;48.406;10.774;2024-03-07T04:50:16;3.50;99.90
7654;DHT22;3869;48.406;10.774;2024-03-07T04:52:47;3.60;99.90
7654;DHT22;3869;48.406;10.774;2024-03-07T04:55:16;3.60;99.90
7654;DHT22;3869;48.406;10.774;2024-03-07T04:57:45;3.60;99.90
7654;DHT22;3869;48.406;10.774;2024-03-07T05:00:14;3.50;99.90
7654;DHT22;3869;48.406;10.774;2024-03-07T05:02:47;3.50;99.90
7654;DHT22;3869;48.406;10.774;2024-03-07T05:05:15;3.50;99.90
7654;DHT22;3869;48.406;10.774;2024-03-07T05:07:50;3.50;99.90
7654;DHT22;3869;48.406;10.774;2024-03-07T05:10:19;3.50;99.90
7654;DHT22;3869;48.406;10.774;2024-03-07T05:12:48;3.40;99.90
7654;DHT22;3869;48.406;10.774;2024-03-07T05:15:16;3.30;99.90
7654;DHT22;3869;48.406;10.774;2024-03-07T05:17:45;3.30;99.90
7654;DHT22;3869;48.406;10.774;2024-03-07T05:20:13;3.40;99.90
7654;DHT22;3869;48.406;10.774;2024-03-07T05:22:41;3.40;99.90
7654;DHT22;3869;48.406;10.774;2024-03-07T05:25:13;3.50;99.90
7654;DHT22;3869;48.406;10.774;2024-03-07T05:27:43;3.50;99.90
7654;DHT22;3869;48.406;10.774;2024-03-07T05:30:12;3.40;99.90
7654;DHT22;3869;48.406;10.774;2024-03-07T05:32:42;3.30;99.90
7654;DHT22;3869;48.406;10.774;2024-03-07T05:35:11;3.20;99.90
7654;DHT22;3869;48.406;10.774;2024-03-07T05:37:39;3.10;99.90
7654;DHT22;3869;48.406;10.774;2024-03-07T05:40:15;3.00;99.90
7654;DHT22;3869;48.406;10.774;2024-03-07T05:42:43;3.00;99.90
7654;DHT22;3869;48.406;10.774;2024-03-07T05:45:11;3.00;99.90
7654;DHT22;3869;48.406;10.774;2024-03-07T05:47:40;3.00;99.90
7654;DHT22;3869;48.406;10.774;2024-03-07T05:50:08;3.10;99.90
7654;DHT22;3869;48.406;10.774;2024-03-07T05:52:37;3.00;99.90
7654;DHT22;3869;48.406;10.774;2024-03-07T05:55:06;3.00;99.90
7654;DHT22;3869;48.406;10.774;2024-03-07T05:57:35;2.90;99.90
7654;DHT22;3869;48.406;10.774;2024-03-07T06:00:08;2.90;99.90
7654;DHT22;3869;48.406;10.774;2024-03-07T06:02:39;3.00;99.90
7654;DHT22;3869;48.406;10.774;2024-03-07T06:05:07;3.00;99.90
7654;DHT22;3869;48.406;10.774;2024-03-07T06:07:39;2.90;99.90
7654;DHT22;3869;48.406;10.774;2024-03-07T06:10:08;2.80;99.90
7654;DHT22;3869;48.406;10.774;2024-03-07T06:12:39;2.90;99.90
7654;DHT22;3869;48.406;10.774;2024-03-07T06:15:30;2.80;99.90
7654;DHT22;3869;48.406;10.774;2024-03-07T06:17:58;2.80;99.90
7654;DHT22;3869;48.406;10.774;2024-03-07T06:20:27;2.80;99.90
7654;DHT22;3869;48.406;10.774;2024-03-07T06:22:55;2.80;99.90
7654;DHT22;3869;48.406;10.774;2024-03-07T06:25:24;2.70;99.90
7654;DHT22;3869;48.406;10.774;2024-03-07T06:28:05;2.70;99.90
7654;DHT22;3869;48.406;10.774;2024-03-07T06:30:39;2.70;99.90
7654;DHT22;3869;48.406;10.774;2024-03-07T06:33:07;2.80;99.90
7654;DHT22;3869;48.406;10.774;2024-03-07T06:35:35;2.80;99.90
7654;DHT22;3869;48.406;10.774;2024-03-07T06:38:04;2.80;99.90
7654;DHT22;3869;48.406;10.774;2024-03-07T06:40:33;2.70;99.90
7654;DHT22;3869;48.406;10.774;2024-03-07T06:43:01;2.70;99.90
7654;DHT22;3869;48.406;10.774;2024-03-07T06:45:32;2.80;99.90
7654;DHT22;3869;48.406;10.774;2024-03-07T06:48:00;2.80;99.90
7654;DHT22;3869;48.406;10.774;2024-03-07T06:50:29;2.80;99.90
7654;DHT22;3869;48.406;10.774;2024-03-07T06:53:04;2.90;99.90
7654;DHT22;3869;48.406;10.774;2024-03-07T06:55:35;2.90;99.90
7654;DHT22;3869;48.406;10.774;2024-03-07T06:58:03;2.90;99.90
7654;DHT22;3869;48.406;10.774;2024-03-07T07:00:34;2.80;99.90
7654;DHT22;3869;48.406;10.774;2024-03-07T07:03:05;2.90;99.90
7654;DHT22;3869;48.406;10.774;2024-03-07T07:05:34;3.00;99.90
7654;DHT22;3869;48.406;10.774;2024-03-07T07:08:03;3.10;99.90
7654;DHT22;3869;48.406;10.774;2024-03-07T07:10:32;3.10;99.90
7654;DHT22;3869;48.406;10.774;2024-03-07T07:13:00;3.10;99.90
7654;DHT22;3869;48.406;10.774;2024-03-07T07:15:31;3.10;99.90
7654;DHT22;3869;48.406;10.774;2024-03-07T07:18:00;3.10;99.90
7654;DHT22;3869;48.406;10.774;2024-03-07T07:20:29;3.00;99.90
7654;DHT22;3869;48.406;10.774;2024-03-07T07:23:01;3.00;99.90
7654;DHT22;3869;48.406;10.774;2024-03-07T07:25:30;3.00;99.90
7654;DHT22;3869;48.406;10.774;2024-03-07T07:27:59;3.00;99.90
7654;DHT22;3869;48.406;10.774;2024-03-07T07:30:27;2.90;99.90
7654;DHT22;3869;48.406;10.774;2024-03-07T07:32:55;2.90;99.90
7654;DHT22;3869;48.406;10.774;2024-03-07T07:35:24;2.80;99.90
7654;DHT22;3869;48.406;10.774;2024-03-07T07:37:53;2.80;99.90
7654;DHT22;3869;48.406;10.774;2024-03-07T07:40:24;2.80;99.90
7654;DHT22;3869;48.406;10.774;2024-03-07T07:42:54;2.70;99.90
7654;DHT22;3869;48.406;10.774;2024-03-07T07:45:23;2.70;99.90
7654;DHT22;3869;48.406;10.774;2024-03-07T07:47:52;2.80;99.90
7654;DHT22;3869;48.406;10.774;2024-03-07T07:50:22;2.70;99.90
7654;DHT22;3869;48.406;10.774;2024-03-07T07:52:53;2.70;99.90
7654;DHT22;3869;48.406;10.774;2024-03-07T07:55:23;2.80;99.90
7654;DHT22;3869;48.406;10.774;2024-03-07T07:57:52;2.80;99.90
7654;DHT22;3869;48.406;10.774;2024-03-07T08:00:22;2.80;99.90
7654;DHT22;3869;48.406;10.774;2024-03-07T08:02:51;2.90;99.90
7654;DHT22;3869;48.406;10.774;2024-03-07T08:05:20;2.90;99.90
7654;DHT22;3869;48.406;10.774;2024-03-07T08:07:51;2.90;99.90
7654;DHT22;3869;48.406;10.774;2024-03-07T08:10:20;2.90;99.90
7654;DHT22;3869;48.406;10.774;2024-03-07T08:12:50;2.90;99.90
7654;DHT22;3869;48.406;10.774;2024-03-07T08:15:18;2.80;99.90
7654;DHT22;3869;48.406;10.774;2024-03-07T08:17:47;2.80;99.90
7654;DHT22;3869;48.406;10.774;2024-03-07T08:20:18;2.80;99.90
7654;DHT22;3869;48.406;10.774;2024-03-07T08:22:48;2.80;99.90
7654;DHT22;3869;48.406;10.774;2024-03-07T08:25:20;2.80;99.90
7654;DHT22;3869;48.406;10.774;2024-03-07T08:27:51;2.90;99.90
7654;DHT22;3869;48.406;10.774;2024-03-07T08:30:20;3.00;99.90
7654;DHT22;3869;48.406;10.774;2024-03-07T08:32:50;3.10;99.90
7654;DHT22;3869;48.406;10.774;2024-03-07T08:35:20;3.30;99.90
7654;DHT22;3869;48.406;10.774;2024-03-07T08:37:49;3.30;99.90
7654;DHT22;3869;48.406;10.774;2024-03-07T08:40:22;3.40;99.90
7654;DHT22;3869;48.406;10.774;2024-03-07T08:42:55;3.50;99.90
7654;DHT22;3869;48.406;10.774;2024-03-07T08:45:25;3.40;99.90
7654;DHT22;3869;48.406;10.774;2024-03-07T08:47:54;3.40;99.90
7654;DHT22;3869;48.406;10.774;2024-03-07T08:50:24;3.40;99.90
7654;DHT22;3869;48.406;10.774;2024-03-07T08:52:53;3.40;99.90
7654;DHT22;3869;48.406;10.774;2024-03-07T08:55:24;3.40;99.90
7654;DHT22;3869;48.406;10.774;2024-03-07T08:57:53;3.30;99.90
7654;DHT22;3869;48.406;10.774;2024-03-07T09:00:22;3.40;99.90
7654;DHT22;3869;48.406;10.774;2024-03-07T09:02:53;3.50;99.90
7654;DHT22;3869;48.406;10.774;2024-03-07T09:05:24;3.60;99.90
7654;DHT22;3869;48.406;10.774;2024-03-07T09:07:53;3.60;99.90
7654;DHT22;3869;48.406;10.774;2024-03-07T09:10:23;3.50;99.90
7654;DHT22;3869;48.406;10.774;2024-03-07T09:12:53;3.50;99.90
7654;DHT22;3869;48.406;10.774;2024-03-07T09:15:21;3.50;99.90
7654;DHT22;3869;48.406;10.774;2024-03-07T09:17:51;3.50;99.90
7654;DHT22;3869;48.406;10.774;2024-03-07T09:20:20;3.40;99.90
7654;DHT22;3869;48.406;10.774;2024-03-07T09:22:48;3.50;99.90
7654;DHT22;3869;48.406;10.774;2024-03-07T09:25:17;3.50;99.90
7654;DHT22;3869;48.406;10.774;2024-03-07T09:27:48;3.50;99.90
7654;DHT22;3869;48.406;10.774;2024-03-07T09:30:16;3.60;99.90
7654;DHT22;3869;48.406;10.774;2024-03-07T09:32:48;3.70;99.90
7654;DHT22;3869;48.406;10.774;2024-03-07T09:35:18;3.80;99.90
7654;DHT22;3869;48.406;10.774;2024-03-07T09:37:46;3.80;99.90
7654;DHT22;3869;48.406;10.774;2024-03-07T09:40:14;3.80;99.90
7654;DHT22;3869;48.406;10.774;2024-03-07T09:42:44;3.90;99.90
7654;DHT22;3869;48.406;10.774;2024-03-07T09:45:17;3.90;99.90
7654;DHT22;3869;48.406;10.774;2024-03-07T09:47:47;4.10;99.90
7654;DHT22;3869;48.406;10.774;2024-03-07T09:50:17;4.10;99.90
7654;DHT22;3869;48.406;10.774;2024-03-07T09:52:50;4.20;99.90
7654;DHT22;3869;48.406;10.774;2024-03-07T09:55:21;4.10;99.90
7654;DHT22;3869;48.406;10.774;2024-03-07T09:57:53;4.10;99.90
7654;DHT22;3869;48.406;10.774;2024-03-07T10:00:25;4.20;99.90
7654;DHT22;3869;48.406;10.774;2024-03-07T10:02:58;4.10;99.90
7654;DHT22;3869;48.406;10.774;2024-03-07T10:05:27;4.10;99.90
7654;DHT22;3869;48.406;10.774;2024-03-07T10:07:56;4.70;99.90
7654;DHT22;3869;48.406;10.774;2024-03-07T10:10:24;4.10;99.90
7654;DHT22;3869;48.406;10.774;2024-03-07T10:12:53;4.20;99.90
7654;DHT22;3869;48.406;10.774;2024-03-07T10:15:21;4.30;99.90
7654;DHT22;3869;48.406;10.774;2024-03-07T10:17:51;4.30;99.90
7654;DHT22;3869;48.406;10.774;2024-03-07T10:20:19;4.20;99.90
7654;DHT22;3869;48.406;10.774;2024-03-07T10:22:49;4.20;99.90
7654;DHT22;3869;48.406;10.774;2024-03-07T10:25:18;4.30;99.90
7654;DHT22;3869;48.406;10.774;2024-03-07T10:27:48;4.40;99.90
7654;DHT22;3869;48.406;10.774;2024-03-07T10:30:16;4.50;99.90
7654;DHT22;3869;48.406;10.774;2024-03-07T10:32:54;4.50;99.90
7654;DHT22;3869;48.406;10.774;2024-03-07T10:35:23;4.50;99.90
7654;DHT22;3869;48.406;10.774;2024-03-07T10:37:52;4.50;99.90
7654;DHT22;3869;48.406;10.774;2024-03-07T10:40:21;4.60;99.90
7654;DHT22;3869;48.406;10.774;2024-03-07T10:42:49;4.80;99.90
7654;DHT22;3869;48.406;10.774;2024-03-07T10:45:20;5.00;99.90
7654;DHT22;3869;48.406;10.774;2024-03-07T10:47:54;5.10;99.90
7654;DHT22;3869;48.406;10.774;2024-03-07T10:50:39;5.10;99.90
7654;DHT22;3869;48.406;10.774;2024-03-07T10:53:19;5.30;99.90
7654;DHT22;3869;48.406;10.774;2024-03-07T10:58:46;5.20;99.90
7654;DHT22;3869;48.406;10.774;2024-03-07T11:01:20;5.10;99.90
7654;DHT22;3869;48.406;10.774;2024-03-07T11:03:52;5.10;99.90
7654;DHT22;3869;48.406;10.774;2024-03-07T11:06:25;5.30;99.90
7654;DHT22;3869;48.406;10.774;2024-03-07T11:08:53;5.30;99.90
7654;DHT22;3869;48.406;10.774;2024-03-07T11:11:22;5.30;99.90
7654;DHT22;3869;48.406;10.774;2024-03-07T11:13:51;5.50;99.90
7654;DHT22;3869;48.406;10.774;2024-03-07T11:16:22;5.70;99.90
7654;DHT22;3869;48.406;10.774;2024-03-07T11:19:21;5.90;99.90
7654;DHT22;3869;48.406;10.774;2024-03-07T11:21:54;6.10;99.90
7654;DHT22;3869;48.406;10.774;2024-03-07T11:24:23;6.30;99.90
7654;DHT22;3869;48.406;10.774;2024-03-07T11:26:52;6.50;99.90
7654;DHT22;3869;48.406;10.774;2024-03-07T11:29:41;6.30;99.90
7654;DHT22;3869;48.406;10.774;2024-03-07T11:32:14;6.30;99.90
7654;DHT22;3869;48.406;10.774;2024-03-07T11:34:45;6.40;99.90
7654;DHT22;3869;48.406;10.774;2024-03-07T11:37:17;6.20;99.90
7654;DHT22;3869;48.406;10.774;2024-03-07T11:39:50;6.00;99.90
7654;DHT22;3869;48.406;10.774;2024-03-07T11:42:23;5.80;99.90
7654;DHT22;3869;48.406;10.774;2024-03-07T11:44:53;6.00;99.90
7654;DHT22;3869;48.406;10.774;2024-03-07T11:47:24;6.00;99.90
7654;DHT22;3869;48.406;10.774;2024-03-07T11:49:57;6.00;99.90
7654;DHT22;3869;48.406;10.774;2024-03-07T11:52:26;5.90;99.90
7654;DHT22;3869;48.406;10.774;2024-03-07T11:54:55;5.80;99.90
7654;DHT22;3869;48.406;10.774;2024-03-07T11:57:31;5.80;99.90
7654;DHT22;3869;48.406;10.774;2024-03-07T12:00:01;5.90;99.90
7654;DHT22;3869;48.406;10.774;2024-03-07T12:02:37;5.90;99.90
7654;DHT22;3869;48.406;10.774;2024-03-07T12:05:08;6.10;99.90
7654;DHT22;3869;48.406;10.774;2024-03-07T12:07:36;6.20;99.90
7654;DHT22;3869;48.406;10.774;2024-03-07T12:10:05;6.30;99.90
7654;DHT22;3869;48.406;10.774;2024-03-07T12:12:34;6.50;99.90
7654;DHT22;3869;48.406;10.774;2024-03-07T12:15:06;6.70;99.90
7654;DHT22;3869;48.406;10.774;2024-03-07T12:17:42;6.80;99.90
7654;DHT22;3869;48.406;10.774;2024-03-07T12:20:12;7.00;99.90
7654;DHT22;3869;48.406;10.774;2024-03-07T12:22:56;7.00;99.90
7654;DHT22;3869;48.406;10.774;2024-03-07T12:25:24;6.80;99.90
7654;DHT22;3869;48.406;10.774;2024-03-07T12:28:00;6.90;99.90
7654;DHT22;3869;48.406;10.774;2024-03-07T12:30:35;6.90;99.90
7654;DHT22;3869;48.406;10.774;2024-03-07T12:33:04;6.80;99.90
7654;DHT22;3869;48.406;10.774;2024-03-07T12:35:35;6.60;99.90
7654;DHT22;3869;48.406;10.774;2024-03-07T12:38:04;6.70;99.90
7654;DHT22;3869;48.406;10.774;2024-03-07T12:40:32;6.60;99.90
7654;DHT22;3869;48.406;10.774;2024-03-07T12:43:13;6.60;99.90
7654;DHT22;3869;48.406;10.774;2024-03-07T12:45:44;6.70;99.90
7654;DHT22;3869;48.406;10.774;2024-03-07T12:48:12;6.70;99.90
7654;DHT22;3869;48.406;10.774;2024-03-07T12:50:45;6.70;99.90
7654;DHT22;3869;48.406;10.774;2024-03-07T12:53:17;6.80;99.90
7654;DHT22;3869;48.406;10.774;2024-03-07T12:55:45;6.80;99.90
7654;DHT22;3869;48.406;10.774;2024-03-07T12:58:13;6.90;99.90
7654;DHT22;3869;48.406;10.774;2024-03-07T13:00:42;7.00;99.90
7654;DHT22;3869;48.406;10.774;2024-03-07T13:03:10;7.00;99.90
7654;DHT22;3869;48.406;10.774;2024-03-07T13:05:42;6.90;99.90
7654;DHT22;3869;48.406;10.774;2024-03-07T13:08:10;6.90;99.90
7654;DHT22;3869;48.406;10.774;2024-03-07T13:10:40;6.80;99.90
7654;DHT22;3869;48.406;10.774;2024-03-07T13:13:09;6.80;99.90
7654;DHT22;3869;48.406;10.774;2024-03-07T13:15:38;6.90;99.90
7654;DHT22;3869;48.406;10.774;2024-03-07T13:18:06;6.90;99.90
7654;DHT22;3869;48.406;10.774;2024-03-07T13:20:36;7.00;99.90
7654;DHT22;3869;48.406;10.774;2024-03-07T13:23:05;7.00;99.90
7654;DHT22;3869;48.406;10.774;2024-03-07T13:25:34;6.70;99.90
7654;DHT22;3869;48.406;10.774;2024-03-07T13:28:05;6.60;99.90
7654;DHT22;3869;48.406;10.774;2024-03-07T13:30:35;6.40;99.90
7654;DHT22;3869;48.406;10.774;2024-03-07T13:33:04;6.40;99.90
7654;DHT22;3869;48.406;10.774;2024-03-07T13:35:32;6.40;99.90
7654;DHT22;3869;48.406;10.774;2024-03-07T13:38:00;6.40;99.90
7654;DHT22;3869;48.406;10.774;2024-03-07T13:40:30;6.50;99.90
7654;DHT22;3869;48.406;10.774;2024-03-07T13:42:58;6.40;99.90
7654;DHT22;3869;48.406;10.774;2024-03-07T13:45:29;6.50;99.90
7654;DHT22;3869;48.406;10.774;2024-03-07T13:47:58;6.50;99.90
7654;DHT22;3869;48.406;10.774;2024-03-07T13:50:28;6.60;99.90
7654;DHT22;3869;48.406;10.774;2024-03-07T13:53:19;6.70;99.90
7654;DHT22;3869;48.406;10.774;2024-03-07T13:56:32;6.50;99.90
7654;DHT22;3869;48.406;10.774;2024-03-07T13:59:26;6.60;99.90
7654;DHT22;3869;48.406;10.774;2024-03-07T14:02:09;6.70;99.90
7654;DHT22;3869;48.406;10.774;2024-03-07T14:04:51;6.70;99.90
7654;DHT22;3869;48.406;10.774;2024-03-07T14:07:38;6.70;99.90
7654;DHT22;3869;48.406;10.774;2024-03-07T14:10:40;6.80;99.90
7654;DHT22;3869;48.406;10.774;2024-03-07T14:13:26;7.00;99.90
7654;DHT22;3869;48.406;10.774;2024-03-07T14:16:18;7.10;99.90
7654;DHT22;3869;48.406;10.774;2024-03-07T14:22:16;7.00;99.90
7654;DHT22;3869;48.406;10.774;2024-03-07T14:25:23;6.90;99.90
7654;DHT22;3869;48.406;10.774;2024-03-07T14:28:20;6.90;99.90
7654;DHT22;3869;48.406;10.774;2024-03-07T14:30:57;6.90;99.90
7654;DHT22;3869;48.406;10.774;2024-03-07T14:33:28;6.90;99.90
7654;DHT22;3869;48.406;10.774;2024-03-07T14:36:02;6.80;99.90
7654;DHT22;3869;48.406;10.774;2024-03-07T14:38:43;6.70;99.90
7654;DHT22;3869;48.406;10.774;2024-03-07T14:41:12;6.70;99.90
7654;DHT22;3869;48.406;10.774;2024-03-07T14:43:44;6.70;99.90
7654;DHT22;3869;48.406;10.774;2024-03-07T14:46:14;6.90;99.90
7654;DHT22;3869;48.406;10.774;2024-03-07T14:48:43;6.90;99.90
7654;DHT22;3869;48.406;10.774;2024-03-07T14:51:12;6.70;99.90
7654;DHT22;3869;48.406;10.774;2024-03-07T14:53:42;6.70;99.90
7654;DHT22;3869;48.406;10.774;2024-03-07T14:56:10;6.70;99.90
7654;DHT22;3869;48.406;10.774;2024-03-07T14:58:38;6.70;99.90
7654;DHT22;3869;48.406;10.774;2024-03-07T15:01:09;6.70;99.90
7654;DHT22;3869;48.406;10.774;2024-03-07T15:03:39;6.50;99.90
7654;DHT22;3869;48.406;10.774;2024-03-07T15:06:09;6.40;99.90
7654;DHT22;3869;48.406;10.774;2024-03-07T15:08:41;6.40;99.90
7654;DHT22;3869;48.406;10.774;2024-03-07T15:11:14;6.50;99.90
7654;DHT22;3869;48.406;10.774;2024-03-07T15:13:47;6.50;99.90
7654;DHT22;3869;48.406;10.774;2024-03-07T15:16:17;6.60;99.90
7654;DHT22;3869;48.406;10.774;2024-03-07T15:18:59;6.50;99.90
7654;DHT22;3869;48.406;10.774;2024-03-07T15:21:27;6.50;99.90
7654;DHT22;3869;48.406;10.774;2024-03-07T15:23:56;6.50;99.90
7654;DHT22;3869;48.406;10.774;2024-03-07T15:26:24;6.50;99.90
7654;DHT22;3869;48.406;10.774;2024-03-07T15:28:53;6.50;99.90
7654;DHT22;3869;48.406;10.774;2024-03-07T15:31:24;6.40;99.90
7654;DHT22;3869;48.406;10.774;2024-03-07T15:33:52;6.50;99.90
7654;DHT22;3869;48.406;10.774;2024-03-07T15:36:21;6.50;99.90
7654;DHT22;3869;48.406;10.774;2024-03-07T15:38:50;6.50;99.90
7654;DHT22;3869;48.406;10.774;2024-03-07T15:41:18;6.50;99.90
7654;DHT22;3869;48.406;10.774;2024-03-07T15:43:46;6.40;99.90
7654;DHT22;3869;48.406;10.774;2024-03-07T15:46:15;6.40;99.90
7654;DHT22;3869;48.406;10.774;2024-03-07T15:48:46;6.30;99.90
7654;DHT22;3869;48.406;10.774;2024-03-07T15:51:16;6.30;99.90
7654;DHT22;3869;48.406;10.774;2024-03-07T15:53:45;6.20;99.90
7654;DHT22;3869;48.406;10.774;2024-03-07T15:56:14;6.20;99.90
7654;DHT22;3869;48.406;10.774;2024-03-07T15:58:43;6.10;99.90
7654;DHT22;3869;48.406;10.774;2024-03-07T16:01:12;6.10;99.90
7654;DHT22;3869;48.406;10.774;2024-03-07T16:03:43;6.00;99.90
7654;DHT22;3869;48.406;10.774;2024-03-07T16:06:15;6.00;99.90
7654;DHT22;3869;48.406;10.774;2024-03-07T16:08:44;6.00;99.90
7654;DHT22;3869;48.406;10.774;2024-03-07T16:11:12;6.00;99.90
7654;DHT22;3869;48.406;10.774;2024-03-07T16:13:41;6.00;99.90
7654;DHT22;3869;48.406;10.774;2024-03-07T16:16:10;5.90;99.90
7654;DHT22;3869;48.406;10.774;2024-03-07T16:18:40;5.90;99.90
7654;DHT22;3869;48.406;10.774;2024-03-07T16:21:10;5.90;99.90
7654;DHT22;3869;48.406;10.774;2024-03-07T16:23:39;6.00;99.90
7654;DHT22;3869;48.406;10.774;2024-03-07T16:26:08;6.10;99.90
7654;DHT22;3869;48.406;10.774;2024-03-07T16:28:36;6.20;99.90
7654;DHT22;3869;48.406;10.774;2024-03-07T16:31:04;6.20;99.90